KAUM/AUM METAR and TAF weather

Enter ICAO airport designator
Station Type Date Time Source
KAUM METAR 2018/01/19 21:25 UTC NOAA

KAUM 192125Z AUTO 22012KT 10SM CLR 05/M01 A2954 RMK AO2


Station Type Date Time Source
KAUM Decoded METAR 2018/01/19 21:25 UTC NOAA

Austin Municipal, MN, United States (KAUM) 43-40N 092-56W
Jan 19, 2018 - 04:25 PM EST / 2018.01.19 2125 UTC
Wind: from the SW (220 degrees) at 14 MPH (12 KT):0
Visibility: 10 mile(s):0
Sky conditions: clear
Temperature: 41 F (5 C)
Dew Point: 30 F (-1 C)
Relative Humidity: 65%
Pressure (altimeter): 29.54 in. Hg (1000 hPa)
ob: KAUM 192125Z AUTO 22012KT 10SM CLR 05/M01 A2954 RMK AO2
cycle: 21

Station Type Date Time Source
KAUM TAF UTC NOAA

Error!


Example: see airport list